Benld, Illinois
Current Conditions -  °F | °C
As of 12:35 AM on Friday 31 Oct 2014 (Local Time) from K3LF Reporting Station
Broken Clouds Broken Clouds  
Wind Chill: 44°   Ceiling: 3800
Heat Index: 47°   Visibility: 10mi
Dew Point: 43°   Wind: 5mph
Humidity: 86%   Direction: 60°ENE
Pressure: 30.05"   Gusts: NA
Location:  39.09°N, 89.8°W
Report Text: K3LF 310535Z AUTO 06004KT 10SM BKN038 08/06 A3005 RMK AO2 T00810059
Loading
Personal Weather Stations






























Interactive Weather Map
Tropical Storm Tracking
New forecast layout! Learn more

10-Day Weather Forecast

Advertisements
Track Severe Weather on mobile